Time;durP1;ratioP1;P1;durP2;ratioP2;P2;SDS_P1;SDS_P2;PMS_P1;PMS_P2;Temp;Humidity;BMP_temperature;BMP_pressure;BME280_temperature;BME280_humidity;BME280_pressure;Samples;Min_cycle;Max_cycle;Signal;HPM_P1;HPM_P2
2022/09/04 00:02:29;;;;;;;1.40;1.30;;;24.30;48.70;;;;;;4965337;28;20458;-82
2022/09/04 00:05:12;;;;;;;1.20;1.10;;;24.20;48.60;;;;;;5039602;28;20406;-82
2022/09/04 00:08:00;;;;;;;1.27;1.10;;;24.20;48.50;;;;;;5040416;28;20429;-82
2022/09/04 00:10:36;;;;;;;1.60;1.33;;;24.30;48.70;;;;;;5040438;28;20413;-83
2022/09/04 00:13:02;;;;;;;1.63;1.37;;;24.20;48.60;;;;;;5041391;28;20430;-81
2022/09/04 00:15:51;;;;;;;1.87;1.73;;;24.30;48.70;;;;;;5058302;28;20407;-83
2022/09/04 00:18:17;;;;;;;1.63;1.40;;;24.30;48.70;;;;;;5041043;28;20406;-82
2022/09/04 00:21:03;;;;;;;2.07;1.20;;;24.30;48.70;;;;;;5039560;28;20489;-81
2022/09/04 00:23:52;;;;;;;1.43;1.33;;;24.20;48.60;;;;;;5036152;28;20446;-82
2022/09/04 00:26:40;;;;;;;1.70;1.23;;;24.30;48.60;;;;;;5035752;28;20425;-82
2022/09/04 00:29:50;;;;;;;1.60;1.40;;;24.30;48.60;;;;;;5034330;28;20406;-82
2022/09/04 00:32:28;;;;;;;1.97;1.50;;;24.30;48.60;;;;;;4947797;28;20409;-82
2022/09/04 00:38:10;;;;;;;1.43;1.33;;;24.30;48.60;;;;;;4990169;28;20436;-81
2022/09/04 00:41:13;;;;;;;1.40;1.30;;;24.30;48.60;;;;;;4991127;28;20401;-81
2022/09/04 00:44:06;;;;;;;1.43;1.30;;;24.30;48.60;;;;;;4990746;28;20460;-81
2022/09/04 00:47:01;;;;;;;1.50;1.40;;;24.30;48.50;;;;;;4975745;28;20417;-81
2022/09/04 00:49:46;;;;;;;1.33;1.17;;;24.20;48.50;;;;;;4976065;28;20871;-82
2022/09/04 00:52:41;;;;;;;1.57;1.47;;;24.20;48.50;;;;;;4977208;28;20401;-81
2022/09/04 00:55:07;;;;;;;1.50;1.40;;;24.20;48.40;;;;;;4976318;28;20408;-82
2022/09/04 00:58:03;;;;;;;1.60;1.50;;;24.20;48.60;;;;;;4976650;28;20421;-81
2022/09/04 01:00:34;;;;;;;2.63;1.50;;;24.20;48.80;;;;;;4976647;28;20189;-82
2022/09/04 01:03:24;;;;;;;1.97;1.60;;;24.20;48.80;;;;;;4977899;28;20449;-81
2022/09/04 01:06:18;;;;;;;1.70;1.60;;;24.20;48.70;;;;;;4993500;28;20405;-81
2022/09/04 01:09:00;;;;;;;1.80;1.60;;;24.20;48.70;;;;;;5011186;28;20415;-83
2022/09/04 01:11:43;;;;;;;1.70;1.40;;;24.20;48.60;;;;;;5035127;28;20414;-82
2022/09/04 01:14:34;;;;;;;1.63;1.50;;;24.20;48.70;;;;;;5035795;28;20807;-82
2022/09/04 01:17:18;;;;;;;1.80;1.53;;;24.20;48.70;;;;;;5036228;28;20399;-83
2022/09/04 01:20:21;;;;;;;1.97;1.50;;;24.20;48.80;;;;;;5035789;28;20441;-83
2022/09/04 01:22:57;;;;;;;1.63;1.53;;;24.20;48.80;;;;;;5034705;28;20446;-82
2022/09/04 01:25:41;;;;;;;2.43;1.60;;;24.20;48.80;;;;;;5035308;28;20394;-83
2022/09/04 01:28:55;;;;;;;2.00;1.80;;;24.20;48.80;;;;;;5051751;28;20394;-83
2022/09/04 01:31:45;;;;;;;1.60;1.43;;;24.20;48.80;;;;;;5033277;28;20411;-82
2022/09/04 01:34:34;;;;;;;1.53;1.43;;;24.20;48.80;;;;;;5051103;28;20387;-82
2022/09/04 01:37:15;;;;;;;1.57;1.40;;;24.20;48.80;;;;;;5032984;28;20466;-82
2022/09/04 01:39:53;;;;;;;1.50;1.40;;;24.20;48.80;;;;;;5033121;28;20415;-83
2022/09/04 01:42:49;;;;;;;1.50;1.40;;;24.20;48.80;;;;;;5033406;28;20549;-83
2022/09/04 01:45:22;;;;;;;1.70;1.60;;;24.20;48.80;;;;;;5049579;28;20419;-82
2022/09/04 01:47:57;;;;;;;2.17;1.83;;;24.20;48.80;;;;;;5033980;28;20394;-82
2022/09/04 01:50:31;;;;;;;1.87;1.60;;;24.20;48.80;;;;;;5030838;28;20404;-81
2022/09/04 01:53:36;;;;;;;2.03;1.83;;;24.20;48.80;;;;;;5018936;28;20406;-79
2022/09/04 01:56:24;;;;;;;2.07;1.80;;;24.20;48.80;;;;;;5012413;28;20415;-80
2022/09/04 01:59:08;;;;;;;1.30;1.20;;;24.20;48.70;;;;;;5014031;28;20776;-83
2022/09/04 02:01:38;;;;;;;2.27;1.40;;;24.20;48.80;;;;;;5027361;28;20494;-83
2022/09/04 02:04:17;;;;;;;2.37;1.80;;;24.20;48.80;;;;;;5016522;28;20549;-82
2022/09/04 02:07:04;;;;;;;2.07;1.87;;;24.20;48.80;;;;;;5033862;28;20434;-82
2022/09/04 02:09:36;;;;;;;1.57;1.47;;;24.20;48.70;;;;;;5016746;28;20410;-82
2022/09/04 02:12:49;;;;;;;1.73;1.63;;;24.20;48.80;;;;;;5043173;28;20772;-82
2022/09/04 02:15:41;;;;;;;1.87;1.63;;;24.20;48.80;;;;;;5010269;28;20448;-83
2022/09/04 02:18:36;;;;;;;1.57;1.47;;;24.20;48.80;;;;;;5031981;28;20438;-82
2022/09/04 02:21:14;;;;;;;1.60;1.50;;;24.20;48.80;;;;;;5036491;28;20415;-82
2022/09/04 02:24:01;;;;;;;2.53;1.73;;;24.20;48.80;;;;;;5030277;28;20919;-82
2022/09/04 02:26:34;;;;;;;1.97;1.63;;;24.20;48.80;;;;;;5048616;28;20417;-82
2022/09/04 02:29:21;;;;;;;1.60;1.50;;;24.20;48.80;;;;;;5047580;28;20446;-82
2022/09/04 02:32:02;;;;;;;1.83;1.57;;;24.20;48.80;;;;;;5048450;28;20434;-82
2022/09/04 02:35:10;;;;;;;1.70;1.40;;;24.20;48.80;;;;;;5012893;28;20861;-82
2022/09/04 02:37:58;;;;;;;1.80;1.50;;;24.20;48.80;;;;;;4987511;28;20422;-82
2022/09/04 02:40:49;;;;;;;1.30;1.20;;;24.20;48.80;;;;;;5013128;28;20411;-82
2022/09/04 02:43:25;;;;;;;1.53;1.43;;;24.20;48.70;;;;;;5013349;28;20515;-82
2022/09/04 02:46:04;;;;;;;1.73;1.40;;;24.20;48.80;;;;;;5029534;28;20445;-82
2022/09/04 02:49:06;;;;;;;1.87;1.50;;;24.20;48.80;;;;;;5013626;28;20883;-82
2022/09/04 02:51:39;;;;;;;1.60;1.30;;;24.20;48.80;;;;;;5030174;28;20797;-80
2022/09/04 02:54:18;;;;;;;1.73;1.40;;;24.20;48.80;;;;;;5012947;28;20419;-80
2022/09/04 02:57:11;;;;;;;2.43;1.50;;;24.10;48.80;;;;;;5013720;28;20474;-80
2022/09/04 03:00:18;;;;;;;1.60;1.50;;;24.20;48.80;;;;;;5012723;28;20427;-80
2022/09/04 03:02:50;;;;;;;1.87;1.50;;;24.20;48.80;;;;;;5012849;28;20446;-79
2022/09/04 03:05:22;;;;;;;1.70;1.60;;;24.10;48.70;;;;;;5029626;28;20411;-80
2022/09/04 03:08:24;;;;;;;1.50;1.37;;;24.10;48.80;;;;;;5031463;28;20403;-80
2022/09/04 03:11:14;;;;;;;1.50;1.40;;;24.20;48.80;;;;;;5030761;28;20407;-80
2022/09/04 03:14:02;;;;;;;1.83;1.53;;;24.20;48.80;;;;;;5012720;28;20407;-80
2022/09/04 03:16:43;;;;;;;2.00;1.60;;;24.10;48.80;;;;;;5029285;28;20420;-80
2022/09/04 03:19:35;;;;;;;1.67;1.43;;;24.10;48.70;;;;;;5029440;28;20466;-80
2022/09/04 03:22:19;;;;;;;1.57;1.43;;;24.20;48.80;;;;;;5029734;28;20718;-80
2022/09/04 03:25:08;;;;;;;1.60;1.50;;;24.10;48.80;;;;;;5030142;28;20407;-80
2022/09/04 03:27:35;;;;;;;1.83;1.63;;;24.20;48.90;;;;;;5014024;28;20403;-81
2022/09/04 03:30:13;;;;;;;2.03;1.37;;;24.10;48.80;;;;;;5013804;28;20421;-81
2022/09/04 03:33:02;;;;;;;1.73;1.63;;;24.10;48.80;;;;;;5014202;28;20419;-80
2022/09/04 03:36:00;;;;;;;2.20;2.00;;;24.20;48.80;;;;;;5016046;28;20423;-81
2022/09/04 03:38:37;;;;;;;2.03;1.60;;;24.10;48.80;;;;;;5034815;28;20415;-80
2022/09/04 03:41:27;;;;;;;2.80;1.60;;;24.10;48.80;;;;;;5034793;28;20767;-81
2022/09/04 03:44:13;;;;;;;2.03;1.83;;;24.10;48.80;;;;;;5035144;28;20447;-81
2022/09/04 03:46:51;;;;;;;2.90;1.90;;;24.10;48.80;;;;;;5033818;28;20403;-81
2022/09/04 03:49:45;;;;;;;2.13;1.60;;;24.10;48.90;;;;;;5019666;28;20437;-81
2022/09/04 03:52:35;;;;;;;3.00;2.37;;;24.10;48.90;;;;;;5019172;28;20407;-79
2022/09/04 03:55:22;;;;;;;2.30;1.80;;;24.10;48.80;;;;;;5018511;28;20414;-79
2022/09/04 03:58:26;;;;;;;1.60;1.50;;;24.10;48.90;;;;;;5016758;28;20415;-79
2022/09/04 04:00:56;;;;;;;2.80;1.83;;;24.10;49.00;;;;;;5015028;28;20446;-79
2022/09/04 04:03:56;;;;;;;1.90;1.70;;;24.10;49.00;;;;;;5031554;28;20454;-80
2022/09/04 04:06:39;;;;;;;1.87;1.67;;;24.10;49.00;;;;;;5013951;28;20411;-79
2022/09/04 04:09:35;;;;;;;2.53;1.80;;;24.10;49.00;;;;;;5014217;28;20414;-79
2022/09/04 04:12:11;;;;;;;2.77;1.77;;;24.10;49.00;;;;;;5013222;28;20391;-80
2022/09/04 04:14:54;;;;;;;2.00;1.63;;;24.10;49.00;;;;;;5030069;28;20407;-80
2022/09/04 04:17:30;;;;;;;2.23;2.03;;;24.10;49.00;;;;;;5014320;28;20407;-80
2022/09/04 04:20:42;;;;;;;4.20;2.00;;;24.10;49.10;;;;;;5030879;28;20415;-80
2022/09/04 04:23:40;;;;;;;2.70;2.00;;;24.10;49.00;;;;;;5014624;28;20487;-79
2022/09/04 04:26:37;;;;;;;4.17;1.87;;;24.10;49.00;;;;;;5019234;28;20846;-80
2022/09/04 04:29:14;;;;;;;3.00;2.00;;;24.10;49.00;;;;;;5016233;28;20519;-80
2022/09/04 04:32:15;;;;;;;1.83;1.73;;;24.10;49.00;;;;;;5017809;28;20469;-80
2022/09/04 04:35:00;;;;;;;1.80;1.70;;;24.10;48.90;;;;;;5019438;28;20410;-80
2022/09/04 04:37:56;;;;;;;2.53;1.77;;;24.10;49.00;;;;;;5020610;28;20388;-80
2022/09/04 04:40:51;;;;;;;3.27;2.23;;;24.10;49.00;;;;;;5021680;28;20399;-80
2022/09/04 04:43:55;;;;;;;2.30;1.80;;;24.10;49.10;;;;;;5022235;28;20459;-80
2022/09/04 04:46:38;;;;;;;2.30;1.83;;;24.10;49.00;;;;;;5038616;28;20402;-80
2022/09/04 04:49:24;;;;;;;2.17;1.70;;;24.10;49.10;;;;;;5021653;28;20400;-80
2022/09/04 04:52:18;;;;;;;2.30;2.10;;;24.10;49.10;;;;;;5022143;28;20403;-79
2022/09/04 04:55:05;;;;;;;2.33;2.00;;;24.10;49.10;;;;;;5021402;28;20403;-80
2022/09/04 04:58:06;;;;;;;2.00;1.60;;;24.10;49.10;;;;;;5020151;28;20411;-80
2022/09/04 05:00:49;;;;;;;3.93;2.47;;;24.10;49.00;;;;;;5034952;28;20438;-80
2022/09/04 05:03:23;;;;;;;2.73;2.20;;;24.10;49.10;;;;;;5032179;28;20451;-80
2022/09/04 05:06:21;;;;;;;3.10;2.17;;;24.10;49.20;;;;;;5015653;28;20429;-80
2022/09/04 05:09:13;;;;;;;2.27;1.70;;;24.10;49.10;;;;;;5014314;28;20407;-81
2022/09/04 05:12:30;;;;;;;2.10;1.90;;;24.10;49.10;;;;;;5030032;28;20454;-80
2022/09/04 05:15:25;;;;;;;4.67;2.40;;;24.10;49.10;;;;;;4994819;28;20426;-81
2022/09/04 05:18:27;;;;;;;2.50;2.27;;;24.10;49.20;;;;;;5011392;28;20408;-81
2022/09/04 05:20:57;;;;;;;4.40;2.40;;;24.00;49.10;;;;;;5028394;28;20403;-81
2022/09/04 05:23:29;;;;;;;3.60;2.23;;;24.10;49.20;;;;;;5012478;28;20456;-80
2022/09/04 05:26:23;;;;;;;3.17;2.30;;;24.00;49.10;;;;;;5011937;28;20429;-81
2022/09/04 05:29:10;;;;;;;3.40;2.30;;;24.10;49.10;;;;;;5029726;28;20412;-79
2022/09/04 05:31:57;;;;;;;3.20;2.27;;;24.10;49.10;;;;;;5013203;28;20419;-81
2022/09/04 05:34:51;;;;;;;3.47;2.97;;;24.10;49.10;;;;;;5012573;28;20443;-80
2022/09/04 05:37:34;;;;;;;3.20;2.20;;;24.10;49.10;;;;;;5013133;28;20412;-81
2022/09/04 05:40:28;;;;;;;4.07;2.80;;;24.10;49.20;;;;;;5030139;28;20403;-80
2022/09/04 05:43:48;;;;;;;3.30;2.50;;;24.10;49.20;;;;;;5014338;28;20439;-80
2022/09/04 05:46:39;;;;;;;4.17;3.33;;;24.10;49.20;;;;;;5027521;28;20446;-84
2022/09/04 05:49:41;;;;;;;3.93;2.63;;;24.10;49.20;;;;;;5011143;28;20417;-84
2022/09/04 05:52:25;;;;;;;4.00;3.07;;;24.00;49.10;;;;;;5029255;28;20825;-84
2022/09/04 05:55:16;;;;;;;3.80;2.50;;;24.10;49.30;;;;;;5010561;28;20419;-83
2022/09/04 05:58:16;;;;;;;5.90;3.33;;;24.10;49.30;;;;;;5010026;28;20406;-84
2022/09/04 06:01:07;;;;;;;5.60;3.10;;;24.10;49.30;;;;;;4985394;28;20432;-83
2022/09/04 06:03:38;;;;;;;3.20;2.40;;;24.00;49.20;;;;;;5026581;28;20475;-83
2022/09/04 06:06:35;;;;;;;3.40;2.60;;;24.10;49.30;;;;;;5010388;28;20475;-82
2022/09/04 06:09:23;;;;;;;3.73;3.00;;;24.10;49.30;;;;;;5010830;28;20416;-82
2022/09/04 06:12:07;;;;;;;4.20;3.07;;;24.10;49.40;;;;;;5027387;28;20412;-82
2022/09/04 06:15:02;;;;;;;4.30;2.77;;;24.00;49.30;;;;;;5026479;28;20414;-82
2022/09/04 06:17:40;;;;;;;4.93;2.80;;;24.10;49.40;;;;;;5025064;28;20408;-82
2022/09/04 06:20:30;;;;;;;6.73;4.10;;;24.10;49.50;;;;;;5026901;28;20483;-82
2022/09/04 06:23:22;;;;;;;4.40;3.10;;;24.10;49.50;;;;;;5010027;28;20548;-83
2022/09/04 06:26:28;;;;;;;4.17;3.10;;;24.00;49.40;;;;;;5027915;28;20806;-82
2022/09/04 06:32:52;;;;;;;3.20;2.57;;;24.10;49.70;;;;;;4948089;29;20412;-82
2022/09/04 06:35:42;;;;;;;5.77;2.50;;;24.00;49.60;;;;;;4932506;29;20430;-82
2022/09/04 06:38:42;;;;;;;3.33;3.00;;;24.00;49.50;;;;;;4948260;29;20436;-82
2022/09/04 06:41:56;;;;;;;4.67;3.50;;;24.00;49.60;;;;;;4931976;29;20415;-82
2022/09/04 06:44:33;;;;;;;5.03;3.07;;;24.00;49.60;;;;;;4931861;29;20416;-83
2022/09/04 06:47:11;;;;;;;5.03;3.30;;;24.00;49.60;;;;;;4948475;29;20417;-83
2022/09/04 06:50:14;;;;;;;4.83;3.60;;;24.00;49.60;;;;;;4949103;29;20427;-82
2022/09/04 06:52:47;;;;;;;5.30;3.80;;;24.10;49.80;;;;;;4932321;29;20422;-83
2022/09/04 06:55:41;;;;;;;3.30;2.63;;;24.00;49.50;;;;;;4948567;29;20407;-82
2022/09/04 06:58:25;;;;;;;2.90;2.60;;;24.10;49.50;;;;;;4948803;29;20423;-82
2022/09/04 07:01:28;;;;;;;3.37;3.07;;;24.00;49.50;;;;;;5010467;28;20441;-82
2022/09/04 07:04:13;;;;;;;4.43;3.30;;;24.10;49.60;;;;;;5005173;28;20470;-83
2022/09/04 07:06:51;;;;;;;3.80;3.40;;;24.10;49.70;;;;;;5011352;28;20443;-84
2022/09/04 07:09:56;;;;;;;3.63;3.20;;;24.10;49.60;;;;;;5026117;28;20416;-83
2022/09/04 07:13:10;;;;;;;3.07;2.70;;;24.10;49.80;;;;;;4948260;29;20431;-83
2022/09/04 07:15:55;;;;;;;3.33;2.80;;;24.10;49.70;;;;;;5009542;28;20503;-83
2022/09/04 07:18:46;;;;;;;3.60;3.10;;;24.10;49.70;;;;;;5008976;28;20863;-83
2022/09/04 07:28:24;;;;;;;3.93;3.00;;;24.10;49.60;;;;;;5027598;28;20374;-83
2022/09/04 07:31:11;;;;;;;3.37;3.07;;;24.10;49.80;;;;;;5027029;28;20438;-83
2022/09/04 07:34:10;;;;;;;3.50;2.90;;;24.10;49.90;;;;;;5009282;28;20415;-83
2022/09/04 07:37:04;;;;;;;3.67;2.70;;;24.10;49.80;;;;;;5025703;28;20414;-83
2022/09/04 07:39:56;;;;;;;2.97;2.50;;;24.10;49.80;;;;;;5025292;28;20419;-83
2022/09/04 07:42:31;;;;;;;3.23;2.87;;;24.10;49.80;;;;;;5026706;28;20443;-83
2022/09/04 07:45:21;;;;;;;2.63;2.37;;;24.10;49.80;;;;;;5026218;28;20700;-83
2022/09/04 07:48:07;;;;;;;3.00;2.70;;;24.10;49.80;;;;;;5009657;28;20469;-83
2022/09/04 07:51:02;;;;;;;3.27;2.60;;;24.10;49.80;;;;;;5016530;28;20411;-82
2022/09/04 07:53:58;;;;;;;3.50;3.20;;;24.10;49.70;;;;;;5033330;28;20426;-82
2022/09/04 07:56:48;;;;;;;4.27;3.20;;;24.10;50.20;;;;;;5033321;28;20415;-82
2022/09/04 07:59:51;;;;;;;3.30;2.67;;;24.10;50.00;;;;;;5015571;28;20419;-82
2022/09/04 08:03:12;;;;;;;3.50;3.20;;;24.10;50.00;;;;;;4967902;28;20466;-82
2022/09/04 08:06:04;;;;;;;3.60;2.90;;;24.10;50.10;;;;;;4999579;28;20416;-82
2022/09/04 08:08:57;;;;;;;2.80;2.50;;;24.10;49.80;;;;;;5012901;28;20407;-82
2022/09/04 08:11:52;;;;;;;3.00;2.70;;;24.10;50.10;;;;;;5012496;28;20709;-81
2022/09/04 08:14:41;;;;;;;3.50;3.00;;;24.10;50.20;;;;;;5011579;28;20467;-83
2022/09/04 08:17:45;;;;;;;3.60;2.93;;;24.10;50.70;;;;;;5028254;28;20483;-82
2022/09/04 08:20:48;;;;;;;3.33;3.03;;;24.10;50.70;;;;;;5027111;28;20398;-82
2022/09/04 08:23:17;;;;;;;2.77;2.57;;;24.10;50.50;;;;;;5013353;28;20458;-82
2022/09/04 08:25:53;;;;;;;3.63;2.63;;;24.10;50.60;;;;;;5013159;28;20419;-83
2022/09/04 08:28:20;;;;;;;3.57;3.27;;;24.10;50.50;;;;;;5012642;28;20446;-81
2022/09/04 08:31:00;;;;;;;3.83;3.53;;;24.10;50.60;;;;;;5012136;28;20860;-83
2022/09/04 08:34:06;;;;;;;3.23;2.80;;;24.10;50.60;;;;;;5012019;28;20450;-83
2022/09/04 08:36:53;;;;;;;2.50;2.30;;;24.10;50.70;;;;;;5011421;28;20423;-83
2022/09/04 08:39:41;;;;;;;4.77;3.67;;;24.20;50.70;;;;;;5012883;28;20606;-83
2022/09/04 08:42:34;;;;;;;3.00;2.67;;;24.20;50.80;;;;;;5029422;28;20404;-83
2022/09/04 08:45:31;;;;;;;3.27;2.50;;;24.20;50.70;;;;;;5030179;28;20478;-83
2022/09/04 08:48:34;;;;;;;3.40;3.10;;;24.10;50.60;;;;;;5014473;28;20506;-82
2022/09/04 08:51:34;;;;;;;2.60;2.40;;;24.20;51.20;;;;;;5014662;28;20415;-82
2022/09/04 08:54:27;;;;;;;3.20;2.80;;;24.20;50.50;;;;;;5015441;28;20416;-81
2022/09/04 08:57:02;;;;;;;2.87;2.67;;;24.10;50.80;;;;;;5014867;28;20422;-82
2022/09/04 08:59:50;;;;;;;2.53;2.33;;;24.10;50.80;;;;;;5015567;28;20441;-82
2022/09/04 09:02:43;;;;;;;2.70;2.47;;;24.20;50.60;;;;;;5015547;28;20466;-82
2022/09/04 09:05:46;;;;;;;2.80;2.60;;;24.20;50.70;;;;;;5016481;28;20434;-81
2022/09/04 09:08:24;;;;;;;2.87;2.63;;;24.20;50.50;;;;;;5015827;28;20511;-82
2022/09/04 09:11:26;;;;;;;3.30;3.00;;;24.20;50.60;;;;;;5016694;28;20407;-81
2022/09/04 09:14:22;;;;;;;2.50;2.30;;;24.20;50.80;;;;;;5016890;28;20418;-81
2022/09/04 09:17:11;;;;;;;3.10;2.90;;;24.20;50.70;;;;;;5015866;28;20411;-82
2022/09/04 09:19:45;;;;;;;2.87;2.67;;;24.20;50.80;;;;;;5016275;28;20411;-82
2022/09/04 09:22:37;;;;;;;3.80;3.20;;;24.20;50.70;;;;;;5016998;28;20426;-82
2022/09/04 09:25:16;;;;;;;3.63;2.87;;;24.20;50.80;;;;;;5017297;28;20408;-82
2022/09/04 09:28:09;;;;;;;2.53;2.33;;;24.20;50.90;;;;;;5016913;28;20486;-82
2022/09/04 09:31:04;;;;;;;2.60;2.40;;;24.20;50.60;;;;;;5034416;28;20404;-82
2022/09/04 09:33:49;;;;;;;3.03;2.73;;;24.20;50.50;;;;;;5015676;28;20761;-83
2022/09/04 09:37:01;;;;;;;3.13;2.70;;;24.20;50.50;;;;;;5033713;28;20414;-82
2022/09/04 09:40:04;;;;;;;4.60;3.00;;;24.20;51.10;;;;;;5017107;28;20403;-82
2022/09/04 09:42:48;;;;;;;2.70;2.50;;;24.20;50.90;;;;;;5034719;28;20427;-83
2022/09/04 09:45:44;;;;;;;3.20;2.90;;;24.30;50.70;;;;;;5017237;28;20396;-83
2022/09/04 09:48:28;;;;;;;3.27;2.97;;;24.20;50.70;;;;;;5004893;28;20479;-82
2022/09/04 09:51:26;;;;;;;2.87;2.67;;;24.30;51.10;;;;;;5018061;28;20471;-82
2022/09/04 09:54:11;;;;;;;2.87;2.67;;;24.30;51.20;;;;;;5018969;28;20395;-83
2022/09/04 09:57:20;;;;;;;3.50;2.73;;;24.20;50.40;;;;;;5035708;28;20447;-83
2022/09/04 10:00:08;;;;;;;3.00;2.57;;;24.30;50.60;;;;;;5019753;28;20447;-83
2022/09/04 10:03:12;;;;;;;3.03;2.83;;;24.30;50.90;;;;;;5037506;28;20466;-82
2022/09/04 10:06:03;;;;;;;2.90;2.70;;;24.30;50.70;;;;;;5021394;28;20463;-83
2022/09/04 10:08:51;;;;;;;2.70;2.50;;;24.30;51.30;;;;;;5021969;28;20473;-83
2022/09/04 10:11:39;;;;;;;3.00;2.80;;;24.30;51.00;;;;;;5021969;28;20423;-82
2022/09/04 10:18:06;;;;;;;3.27;3.00;;;24.30;51.20;;;;;;5038408;28;20410;-82
2022/09/04 10:21:30;;;;;;;3.10;2.80;;;24.30;50.60;;;;;;5037452;28;20491;-82
2022/09/04 10:24:10;;;;;;;2.63;2.43;;;24.30;50.90;;;;;;4958953;29;20534;-82
2022/09/04 10:27:04;;;;;;;2.60;2.40;;;24.30;51.10;;;;;;4959362;29;20407;-82
2022/09/04 10:29:51;;;;;;;2.50;2.30;;;24.30;51.10;;;;;;4958425;29;20976;-81
2022/09/04 10:32:42;;;;;;;3.13;2.83;;;24.30;51.00;;;;;;4958692;29;20411;-82
2022/09/04 10:35:24;;;;;;;2.20;2.00;;;24.30;50.90;;;;;;4959303;29;20395;-81
2022/09/04 10:38:04;;;;;;;5.60;2.60;;;24.30;50.80;;;;;;4959395;29;20419;-82
2022/09/04 10:40:56;;;;;;;3.20;2.70;;;24.30;50.90;;;;;;4958249;29;20451;-82
2022/09/04 10:43:43;;;;;;;3.13;2.57;;;24.40;51.10;;;;;;4944050;29;20463;-83
2022/09/04 10:46:25;;;;;;;2.40;2.20;;;24.40;51.20;;;;;;4958633;29;20407;-82
2022/09/04 10:49:28;;;;;;;3.00;2.80;;;24.30;51.20;;;;;;4958252;29;20756;-82
2022/09/04 10:55:31;;;;;;;2.63;2.43;;;24.40;51.30;;;;;;5020073;28;20409;-82
2022/09/04 10:58:27;;;;;;;2.70;2.50;;;24.30;51.10;;;;;;5016097;28;20408;-82
2022/09/04 11:01:29;;;;;;;2.77;2.57;;;24.40;51.30;;;;;;5015684;28;20435;-82
2022/09/04 11:04:04;;;;;;;2.60;2.40;;;24.40;51.10;;;;;;5032753;28;20453;-82
2022/09/04 11:06:56;;;;;;;2.70;2.50;;;24.40;51.10;;;;;;5032508;28;20409;-82
2022/09/04 11:09:39;;;;;;;4.60;2.40;;;24.40;50.90;;;;;;5031493;28;20417;-82
2022/09/04 11:12:30;;;;;;;2.10;1.90;;;24.40;51.10;;;;;;5030814;28;20414;-82
2022/09/04 11:15:37;;;;;;;2.77;2.50;;;24.40;51.00;;;;;;5047629;28;20387;-82
2022/09/04 11:21:47;;;;;;;2.40;2.20;;;24.40;50.70;;;;;;4956913;29;20878;-82
2022/09/04 11:25:00;;;;;;;2.50;2.30;;;24.40;51.10;;;;;;4862932;29;20466;-82
2022/09/04 11:27:52;;;;;;;2.50;2.30;;;24.40;50.70;;;;;;4880869;29;20587;-81
2022/09/04 11:30:19;;;;;;;2.37;2.17;;;24.40;51.10;;;;;;4955262;29;20465;-81
2022/09/04 11:33:18;;;;;;;2.20;2.00;;;24.40;51.00;;;;;;4962552;29;20422;-82
2022/09/04 11:36:20;;;;;;;2.40;2.20;;;24.40;51.00;;;;;;4953060;29;20458;-83
2022/09/04 11:39:24;;;;;;;2.70;2.43;;;24.40;50.90;;;;;;4945621;29;20415;-81
2022/09/04 11:42:19;;;;;;;2.53;1.90;;;24.40;50.70;;;;;;4905460;29;20426;-80
2022/09/04 11:45:15;;;;;;;2.60;2.37;;;24.40;50.50;;;;;;4959166;29;20419;-80
2022/09/04 11:48:21;;;;;;;4.67;2.23;;;24.40;50.70;;;;;;4933495;29;20418;-80
2022/09/04 11:51:02;;;;;;;2.00;1.80;;;24.40;50.80;;;;;;4933246;29;20438;-80
2022/09/04 11:53:45;;;;;;;2.63;2.20;;;24.40;50.90;;;;;;4955848;28;20425;-80
2022/09/04 11:56:49;;;;;;;3.13;2.60;;;24.40;50.90;;;;;;5028711;28;20411;-80
2022/09/04 11:59:50;;;;;;;2.23;2.03;;;24.50;50.80;;;;;;5047897;28;20475;-80
2022/09/04 12:02:29;;;;;;;2.30;2.10;;;24.40;50.70;;;;;;5054245;28;20469;-80
2022/09/04 12:05:49;;;;;;;2.70;2.50;;;24.50;50.60;;;;;;5037606;28;20500;-80
2022/09/04 12:08:39;;;;;;;2.20;2.00;;;24.50;50.80;;;;;;4989685;28;20431;-79
2022/09/04 12:11:37;;;;;;;2.37;2.10;;;24.50;50.80;;;;;;5027074;28;20415;-81
2022/09/04 12:14:25;;;;;;;2.10;1.90;;;24.50;50.80;;;;;;5050445;28;20413;-80
2022/09/04 12:24:17;;;;;;;1.87;1.67;;;24.50;50.80;;;;;;5053253;28;20450;-80
2022/09/04 12:27:36;;;;;;;2.33;2.10;;;24.40;50.70;;;;;;5028906;28;20422;-80
2022/09/04 12:30:22;;;;;;;2.20;2.00;;;24.40;50.60;;;;;;4988113;28;20413;-81
2022/09/04 12:32:57;;;;;;;2.83;2.20;;;24.40;50.60;;;;;;5048352;28;20433;-81
2022/09/04 12:36:21;;;;;;;2.03;1.93;;;24.40;51.20;;;;;;5031216;28;20429;-81
2022/09/04 12:39:03;;;;;;;2.67;2.37;;;24.40;50.60;;;;;;4971652;29;20452;-80
2022/09/04 12:41:55;;;;;;;2.47;2.27;;;24.50;50.70;;;;;;5050896;28;20636;-81
2022/09/04 12:44:45;;;;;;;1.87;1.77;;;24.50;50.60;;;;;;5035945;28;20450;-81
2022/09/04 12:47:50;;;;;;;2.97;2.20;;;24.50;50.60;;;;;;5049083;28;20474;-81
2022/09/04 12:57:16;;;;;;;2.37;2.17;;;24.40;50.40;;;;;;5034131;28;20380;-80
2022/09/04 12:59:56;;;;;;;2.00;1.77;;;24.50;50.40;;;;;;5017045;28;20419;-81
2022/09/04 13:02:48;;;;;;;1.90;1.70;;;24.50;50.50;;;;;;5016665;28;20466;-83
2022/09/04 13:05:32;;;;;;;2.23;2.03;;;24.50;50.50;;;;;;5016320;28;20443;-81
2022/09/04 13:08:39;;;;;;;2.10;1.90;;;24.50;50.40;;;;;;5032844;28;20411;-80
2022/09/04 13:11:57;;;;;;;2.03;1.70;;;24.50;50.40;;;;;;5033786;28;20407;-80
2022/09/04 13:14:50;;;;;;;2.13;1.53;;;24.50;50.50;;;;;;4915995;29;20440;-80
2022/09/04 13:17:49;;;;;;;2.40;1.90;;;24.50;50.40;;;;;;4900735;29;20413;-81
2022/09/04 13:21:04;;;;;;;2.03;1.90;;;24.50;50.40;;;;;;4899769;29;20409;-81
2022/09/04 13:24:03;;;;;;;2.13;1.70;;;24.50;50.40;;;;;;4900387;29;20524;-80
2022/09/04 13:26:50;;;;;;;1.77;1.67;;;24.50;50.40;;;;;;4859532;29;20476;-81
2022/09/04 13:36:52;;;;;;;2.07;1.87;;;24.50;50.30;;;;;;4839566;29;20399;-81
2022/09/04 13:39:46;;;;;;;1.70;1.60;;;24.50;50.40;;;;;;4826151;29;20424;-81
2022/09/04 13:42:53;;;;;;;1.90;1.70;;;24.50;50.40;;;;;;4825809;29;20420;-81
2022/09/04 13:45:46;;;;;;;2.57;1.80;;;24.50;50.40;;;;;;4834221;29;20415;-81
2022/09/04 13:48:41;;;;;;;2.00;1.53;;;24.50;50.40;;;;;;4828607;29;20408;-81
2022/09/04 13:51:38;;;;;;;1.90;1.80;;;24.50;50.40;;;;;;4847988;29;20423;-81
2022/09/04 13:54:42;;;;;;;1.90;1.63;;;24.50;50.40;;;;;;4879912;29;20498;-81
2022/09/04 13:57:27;;;;;;;1.80;1.70;;;24.50;50.30;;;;;;4856225;29;20478;-83
2022/09/04 14:00:01;;;;;;;5.30;2.07;;;24.50;50.40;;;;;;4855366;29;20419;-84
2022/09/04 14:02:33;;;;;;;2.40;1.50;;;24.50;50.30;;;;;;4856572;29;20467;-83
2022/09/04 14:05:23;;;;;;;1.90;1.70;;;24.50;50.30;;;;;;4930176;29;20412;-83
2022/09/04 14:11:46;;;;;;;1.70;1.60;;;24.60;50.40;;;;;;4949708;29;20435;-82
2022/09/04 14:14:12;;;;;;;1.70;1.47;;;24.60;50.30;;;;;;4915183;29;20419;-82
2022/09/04 14:16:42;;;;;;;1.87;1.70;;;24.50;50.20;;;;;;4933396;29;20414;-82
2022/09/04 14:19:18;;;;;;;2.63;1.67;;;24.50;50.20;;;;;;4948194;29;20407;-84
2022/09/04 14:22:11;;;;;;;1.83;1.50;;;24.60;50.30;;;;;;4932969;29;20411;-84
2022/09/04 14:25:10;;;;;;;2.47;1.83;;;24.60;50.20;;;;;;4932977;29;20430;-84
2022/09/04 14:28:21;;;;;;;2.63;2.07;;;24.60;50.20;;;;;;4932903;29;20415;-84
2022/09/04 14:30:58;;;;;;;1.63;1.40;;;24.60;50.20;;;;;;4925696;29;20500;-84
2022/09/04 14:33:50;;;;;;;2.67;1.70;;;24.60;50.40;;;;;;4947952;28;20740;-83
2022/09/04 14:36:25;;;;;;;2.17;1.73;;;24.60;50.60;;;;;;5028255;28;20388;-83
2022/09/04 14:39:20;;;;;;;1.70;1.43;;;24.60;50.70;;;;;;5027126;28;20415;-84
2022/09/04 14:42:26;;;;;;;2.43;1.93;;;24.60;50.40;;;;;;5010316;28;20492;-83
2022/09/04 14:45:17;;;;;;;2.10;1.90;;;24.60;50.40;;;;;;5027963;28;20415;-83
2022/09/04 14:47:52;;;;;;;1.90;1.80;;;24.60;51.00;;;;;;5010442;28;20506;-83
2022/09/04 14:50:26;;;;;;;1.97;1.70;;;24.60;50.30;;;;;;5027430;28;20414;-82
2022/09/04 14:52:59;;;;;;;2.13;1.93;;;24.60;50.40;;;;;;5010064;28;20413;-82
2022/09/04 14:55:30;;;;;;;2.53;1.90;;;24.60;50.30;;;;;;5026600;28;20418;-82
2022/09/04 14:58:34;;;;;;;1.73;1.63;;;24.60;50.40;;;;;;5010047;28;20837;-82
2022/09/04 15:01:23;;;;;;;1.80;1.70;;;24.60;50.30;;;;;;4986640;28;20486;-83
2022/09/04 15:04:00;;;;;;;2.10;1.73;;;24.60;50.30;;;;;;5010482;28;20451;-82
2022/09/04 15:07:00;;;;;;;1.87;1.60;;;24.60;50.30;;;;;;5009808;28;20399;-83
2022/09/04 15:09:32;;;;;;;1.90;1.40;;;24.60;50.30;;;;;;5009882;28;20411;-83
2022/09/04 15:12:34;;;;;;;1.77;1.63;;;24.60;50.30;;;;;;5027740;28;20736;-83
2022/09/04 15:15:08;;;;;;;1.90;1.70;;;24.60;50.30;;;;;;5010715;28;20404;-83
2022/09/04 15:17:43;;;;;;;1.40;1.30;;;24.60;50.30;;;;;;5010900;28;20418;-83
2022/09/04 15:20:20;;;;;;;2.57;1.73;;;24.60;50.20;;;;;;5010652;28;20487;-82
2022/09/04 15:23:11;;;;;;;1.53;1.43;;;24.60;50.20;;;;;;5010613;28;20449;-82
2022/09/04 15:25:49;;;;;;;2.20;1.80;;;24.60;50.20;;;;;;5010424;28;20418;-83
2022/09/04 15:28:24;;;;;;;1.60;1.40;;;24.60;50.20;;;;;;5010324;28;20407;-83
2022/09/04 15:31:18;;;;;;;1.80;1.70;;;24.60;50.30;;;;;;4995952;28;20422;-83
2022/09/04 15:33:47;;;;;;;1.87;1.70;;;24.60;50.30;;;;;;5014513;28;20423;-83